Time;durP1;ratioP1;P1;durP2;ratioP2;P2;SDS_P1;SDS_P2;PMS_P1;PMS_P2;Temp;Humidity;BMP_temperature;BMP_pressure;BME280_temperature;BME280_humidity;BME280_pressure;Samples;Min_cycle;Max_cycle;Signal;HPM_P1;HPM_P2
2022/05/12 00:01:42;;;;;;;4.45;1.70;;;;;;;18.15;40.89;96387.88;10328418;28;99135;-66
2022/05/12 00:06:44;;;;;;;3.90;1.83;;;;;;;18.16;41.40;96393.97;10330620;28;97631;-66
2022/05/12 00:11:49;;;;;;;4.43;1.88;;;;;;;18.11;41.47;96382.13;10329978;28;97015;-66
2022/05/12 00:16:56;;;;;;;4.60;1.92;;;;;;;17.99;42.00;96382.84;10334249;28;98518;-66
2022/05/12 00:21:59;;;;;;;3.88;1.98;;;;;;;17.90;42.51;96385.63;10312028;28;97297;-66
2022/05/12 00:27:04;;;;;;;2.63;1.60;;;;;;;17.79;42.21;96386.09;10319812;28;96841;-65
2022/05/12 00:32:08;;;;;;;5.40;1.85;;;;;;;17.63;42.56;96389.00;10330550;28;97165;-66
2022/05/12 00:37:11;;;;;;;4.30;1.80;;;;;;;17.50;43.27;96394.97;10316404;28;97649;-66
2022/05/12 00:42:15;;;;;;;4.30;2.30;;;;;;;17.43;43.36;96388.81;10333375;28;96964;-66
2022/05/12 00:47:19;;;;;;;4.63;1.92;;;;;;;17.31;43.33;96397.19;10323359;28;97761;-66
2022/05/12 00:52:26;;;;;;;4.07;2.13;;;;;;;17.18;43.77;96387.31;10327489;28;96984;-66
2022/05/12 00:57:36;;;;;;;3.88;1.73;;;;;;;17.06;44.24;96395.88;10322441;28;98503;-66
2022/05/12 01:02:40;;;;;;;6.18;2.13;;;;;;;16.95;44.01;96391.88;10314407;28;97005;-66
2022/05/12 01:07:43;;;;;;;3.38;1.90;;;;;;;16.86;44.09;96388.53;10333194;28;100690;-66
2022/05/12 01:12:49;;;;;;;5.30;2.17;;;;;;;16.79;44.45;96388.44;10331939;28;97148;-66
2022/05/12 01:18:01;;;;;;;4.03;1.67;;;;;;;16.74;44.39;96396.06;10331056;28;97865;-66
2022/05/12 01:23:08;;;;;;;3.30;1.60;;;;;;;16.71;44.20;96390.31;10326883;28;100231;-66
2022/05/12 01:28:12;;;;;;;4.38;1.80;;;;;;;16.71;44.60;96396.44;10335357;28;97105;-66
2022/05/12 01:33:15;;;;;;;2.72;1.70;;;;;;;16.72;44.43;96384.06;10332546;28;97228;-66
2022/05/12 01:38:18;;;;;;;4.88;2.00;;;;;;;16.69;44.38;96389.69;10336998;28;97006;-66
2022/05/12 01:43:23;;;;;;;3.37;1.60;;;;;;;16.68;44.55;96390.72;10314527;28;96982;-66
2022/05/12 01:48:25;;;;;;;3.58;1.77;;;;;;;16.66;44.22;96397.97;10324495;28;97918;-66
2022/05/12 01:53:30;;;;;;;4.25;1.58;;;;;;;16.67;44.73;96396.97;10321424;28;96966;-66
2022/05/12 01:58:34;;;;;;;2.20;1.63;;;;;;;16.65;44.70;96398.97;10323133;28;98172;-66
2022/05/12 02:03:37;;;;;;;5.05;1.85;;;;;;;16.62;44.47;96402.78;10327766;28;98374;-66
2022/05/12 02:08:40;;;;;;;3.05;1.40;;;;;;;16.59;44.57;96403.19;10335002;28;98056;-66
2022/05/12 02:13:44;;;;;;;4.90;1.73;;;;;;;16.51;44.92;96411.97;10332414;28;96989;-66
2022/05/12 02:18:47;;;;;;;3.70;1.67;;;;;;;16.43;44.69;96420.81;10323083;28;97016;-66
2022/05/12 02:23:50;;;;;;;4.38;1.73;;;;;;;16.28;44.87;96421.78;10323855;28;97042;-66
2022/05/12 02:28:54;;;;;;;3.10;1.60;;;;;;;16.21;44.93;96427.75;10325939;28;99701;-66
2022/05/12 02:33:57;;;;;;;4.70;1.80;;;;;;;16.15;44.68;96423.19;10323264;28;96937;-66
2022/05/12 02:39:00;;;;;;;3.00;1.63;;;;;;;16.07;45.13;96415.38;10318166;28;96819;-66
2022/05/12 02:44:05;;;;;;;4.13;1.80;;;;;;;16.03;44.99;96419.34;10321271;28;96942;-66
2022/05/12 02:49:09;;;;;;;6.57;2.17;;;;;;;16.01;44.90;96418.69;10322320;28;97750;-66
2022/05/12 02:54:12;;;;;;;3.05;1.60;;;;;;;15.88;45.20;96427.22;10310087;28;99077;-66
2022/05/12 02:59:17;;;;;;;5.45;1.80;;;;;;;15.86;45.12;96419.47;10322301;28;96876;-65
2022/05/12 03:04:20;;;;;;;3.55;2.00;;;;;;;15.84;45.86;96421.47;10321053;28;98474;-66
2022/05/12 03:09:23;;;;;;;4.53;1.60;;;;;;;15.81;46.11;96415.75;10330408;28;96973;-66
2022/05/12 03:14:27;;;;;;;4.70;1.70;;;;;;;15.84;45.83;96421.47;10325904;28;96958;-66
2022/05/12 03:19:31;;;;;;;2.77;1.80;;;;;;;15.88;45.50;96414.03;10314604;28;98062;-65
2022/05/12 03:24:34;;;;;;;3.88;1.83;;;;;;;15.93;45.48;96409.06;10323773;28;98440;-66
2022/05/12 03:29:38;;;;;;;3.75;1.63;;;;;;;15.93;45.62;96416.13;10327879;28;98372;-66
2022/05/12 03:34:41;;;;;;;3.47;2.13;;;;;;;15.96;45.20;96415.78;10326350;28;97144;-66
2022/05/12 03:39:45;;;;;;;4.38;1.60;;;;;;;15.98;45.33;96417.25;10321626;28;98463;-66
2022/05/12 03:44:50;;;;;;;4.65;1.80;;;;;;;15.97;45.77;96415.59;10327371;28;96955;-65
2022/05/12 03:49:57;;;;;;;3.20;1.73;;;;;;;15.95;46.20;96432.59;10325164;28;98747;-66
2022/05/12 03:55:00;;;;;;;3.70;1.85;;;;;;;15.89;45.97;96428.81;10330632;28;99126;-66
2022/05/12 04:00:07;;;;;;;4.15;1.63;;;;;;;15.85;46.54;96425.72;10329369;28;98406;-66
2022/05/12 04:05:10;;;;;;;3.72;2.17;;;;;;;15.80;46.52;96424.63;10323371;28;98032;-66
2022/05/12 04:10:16;;;;;;;3.35;1.60;;;;;;;15.72;46.33;96428.16;10316222;28;96955;-65
2022/05/12 04:15:22;;;;;;;3.13;2.00;;;;;;;15.43;47.44;96434.06;10322914;28;97761;-66
2022/05/12 04:20:26;;;;;;;3.60;1.98;;;;;;;15.13;48.18;96445.22;10318488;28;97193;-66
2022/05/12 04:25:29;;;;;;;3.10;2.27;;;;;;;15.05;48.68;96442.59;10323461;28;99321;-65
2022/05/12 04:30:34;;;;;;;3.88;1.77;;;;;;;14.95;49.59;96449.88;10323477;28;98784;-66
2022/05/12 04:35:36;;;;;;;3.63;2.00;;;;;;;14.80;49.41;96444.53;10320446;28;97759;-66
2022/05/12 04:40:39;;;;;;;3.40;1.90;;;;;;;14.67;50.44;96463.44;10323679;28;98039;-66
2022/05/12 04:45:44;;;;;;;3.95;2.22;;;;;;;14.24;51.87;96462.81;10317838;28;98793;-66
2022/05/12 04:50:46;;;;;;;3.50;2.20;;;;;;;14.03;52.83;96473.00;10325286;28;97300;-66
2022/05/12 04:55:50;;;;;;;4.15;2.05;;;;;;;14.15;52.50;96471.69;10316765;28;98762;-66
2022/05/12 05:00:54;;;;;;;5.03;1.98;;;;;;;14.16;52.31;96473.34;10325116;28;97695;-66
2022/05/12 05:05:59;;;;;;;4.38;2.10;;;;;;;14.26;53.37;96473.16;10318136;28;98752;-66
2022/05/12 05:11:03;;;;;;;3.20;2.00;;;;;;;14.43;53.25;96474.00;10320329;28;98100;-66
2022/05/12 05:16:08;;;;;;;4.67;2.33;;;;;;;14.52;52.83;96478.25;10320976;28;97053;-66
2022/05/12 05:21:11;;;;;;;5.03;1.92;;;;;;;14.67;52.41;96483.66;10318724;28;98014;-66
2022/05/12 05:26:14;;;;;;;7.32;2.40;;;;;;;14.68;52.19;96488.75;10325441;28;98925;-65
2022/05/12 05:31:19;;;;;;;4.80;1.95;;;;;;;14.84;52.35;96492.34;10318506;28;97133;-65
2022/05/12 05:36:25;;;;;;;4.97;1.92;;;;;;;14.98;51.55;96499.53;10325585;28;97674;-66
2022/05/12 05:41:28;;;;;;;5.45;1.98;;;;;;;15.15;51.45;96494.19;10330098;28;97358;-66
2022/05/12 05:46:33;;;;;;;4.03;2.42;;;;;;;15.29;51.58;96509.31;10314179;28;96910;-66
2022/05/12 05:56:56;;;;;;;6.30;2.83;;;;;;;15.55;51.47;96509.03;10319208;28;96825;-65
2022/05/12 06:02:01;;;;;;;4.25;2.03;;;;;;;15.68;51.49;96506.66;10314233;28;97956;-66
2022/05/12 06:07:04;;;;;;;5.55;2.20;;;;;;;15.82;51.74;96514.81;10327779;28;96985;-65
2022/05/12 06:12:08;;;;;;;2.40;1.83;;;;;;;15.99;52.27;96518.19;10322539;28;97592;-66
2022/05/12 06:17:13;;;;;;;2.70;2.20;;;;;;;16.13;51.82;96517.41;10322709;28;96767;-66
2022/05/12 06:22:18;;;;;;;3.65;2.08;;;;;;;16.23;51.25;96519.84;10319187;28;96953;-66
2022/05/12 06:27:22;;;;;;;4.22;2.00;;;;;;;16.39;51.50;96517.06;10319266;28;96900;-66
2022/05/12 06:32:27;;;;;;;3.80;2.30;;;;;;;16.50;50.88;96521.13;10327511;28;98364;-66
2022/05/12 06:37:30;;;;;;;3.83;2.08;;;;;;;16.58;50.46;96517.56;10316563;28;97358;-66
2022/05/12 06:42:35;;;;;;;4.30;2.28;;;;;;;16.65;50.31;96522.94;10306489;28;97547;-66
2022/05/12 06:47:45;;;;;;;2.67;1.70;;;;;;;16.78;50.30;96529.28;10323365;28;97084;-66
2022/05/12 06:52:49;;;;;;;3.67;1.88;;;;;;;16.87;49.45;96529.22;10332993;28;97102;-66
2022/05/12 06:57:52;;;;;;;2.35;1.83;;;;;;;16.99;50.39;96527.78;10329766;28;96820;-66
2022/05/12 07:02:57;;;;;;;3.90;2.58;;;;;;;17.09;50.31;96524.84;10336012;28;96817;-65
2022/05/12 07:08:00;;;;;;;3.70;2.00;;;;;;;17.20;50.02;96521.78;10337667;28;96959;-66
2022/05/12 07:13:03;;;;;;;4.30;2.08;;;;;;;17.34;49.83;96528.03;10333920;28;96859;-66
2022/05/12 07:18:10;;;;;;;6.00;2.42;;;;;;;17.41;49.67;96528.13;10329296;28;97333;-66
2022/05/12 07:28:36;;;;;;;5.32;2.22;;;;;;;17.62;49.25;96525.53;10334206;28;96739;-66
2022/05/12 07:33:42;;;;;;;4.45;2.20;;;;;;;17.67;49.50;96525.81;10323408;28;96846;-66
2022/05/12 07:38:46;;;;;;;5.57;2.00;;;;;;;17.82;49.67;96519.66;10340552;28;99784;-66
2022/05/12 07:43:51;;;;;;;4.20;2.37;;;;;;;17.99;49.04;96520.28;10336854;28;98740;-66
2022/05/12 07:48:56;;;;;;;4.78;2.00;;;;;;;18.17;49.22;96527.78;10334390;28;96768;-66
2022/05/12 07:53:59;;;;;;;6.18;2.00;;;;;;;18.23;48.79;96516.47;10340210;28;96846;-66
2022/05/12 07:59:04;;;;;;;3.92;2.20;;;;;;;18.39;48.02;96518.84;10338103;28;97008;-66
2022/05/12 08:04:08;;;;;;;5.50;2.00;;;;;;;18.59;48.40;96512.94;10333275;28;96968;-66
2022/05/12 08:09:12;;;;;;;6.80;2.25;;;;;;;18.73;47.36;96522.59;10346596;28;96759;-66
2022/05/12 08:14:15;;;;;;;3.90;1.88;;;;;;;18.78;46.58;96519.38;10343834;28;96824;-66
2022/05/12 08:19:19;;;;;;;3.92;1.90;;;;;;;18.81;47.02;96525.09;10340390;28;96941;-66
2022/05/12 08:24:22;;;;;;;4.15;2.17;;;;;;;18.98;47.05;96527.47;10344471;28;96956;-66
2022/05/12 08:29:26;;;;;;;6.32;2.50;;;;;;;19.18;47.09;96524.97;10344042;28;96960;-66
2022/05/12 08:34:30;;;;;;;2.72;1.77;;;;;;;19.35;46.55;96522.81;10341351;28;97888;-66
2022/05/12 08:39:33;;;;;;;4.97;2.40;;;;;;;19.50;45.54;96528.78;10342904;28;96767;-66
2022/05/12 08:44:40;;;;;;;5.18;2.30;;;;;;;19.66;45.09;96513.56;10343981;28;96782;-66
2022/05/12 08:49:48;;;;;;;4.28;1.75;;;;;;;19.89;44.50;96511.44;10342435;28;96964;-66
2022/05/12 08:54:53;;;;;;;4.75;2.22;;;;;;;20.27;44.09;96513.56;10341046;28;96850;-66
2022/05/12 08:59:58;;;;;;;4.03;2.25;;;;;;;20.67;43.60;96518.06;10346518;28;96928;-66
2022/05/12 09:05:04;;;;;;;;;;;;;;;20.84;43.71;96518.50;10342316;28;96835;-66
2022/05/12 09:10:18;;;;;;;3.97;1.98;;;;;;;21.20;42.32;96515.38;10337027;28;97072;-66
2022/05/12 09:15:24;;;;;;;4.37;2.00;;;;;;;21.42;42.11;96502.66;10343110;28;96723;-66
2022/05/12 09:20:32;;;;;;;3.70;1.85;;;;;;;21.59;40.76;96496.84;10341191;28;96953;-66
2022/05/12 09:25:39;;;;;;;3.63;1.83;;;;;;;21.59;40.64;96505.66;10341308;28;98873;-66
2022/05/12 09:30:50;;;;;;;4.28;1.73;;;;;;;21.76;40.26;96494.56;10324538;28;96938;-66
2022/05/12 09:35:59;;;;;;;2.90;1.40;;;;;;;22.08;39.15;96498.06;10343362;28;97058;-66
2022/05/12 09:41:15;;;;;;;9.27;2.13;;;;;;;22.33;39.65;96478.66;10339955;28;97034;-66
2022/05/12 09:46:29;;;;;;;3.30;1.85;;;;;;;22.67;38.58;96481.91;10337927;28;96864;-66
2022/05/12 09:51:35;;;;;;;;;;;;;;;22.91;38.68;96474.94;10341015;28;97877;-67
2022/05/12 09:56:39;;;;;;;5.43;1.95;;;;;;;23.08;37.58;96477.81;10341754;28;97062;-66
2022/05/12 10:01:49;;;;;;;;;;;;;;;23.15;38.53;96487.41;10339314;28;96863;-67
2022/05/12 10:12:35;;;;;;;4.10;2.08;;;;;;;22.89;38.42;96477.81;10340874;28;96889;-67
2022/05/12 10:17:42;;;;;;;3.00;1.80;;;;;;;22.79;38.84;96478.31;10340636;28;96951;-67
2022/05/12 10:22:53;;;;;;;5.22;1.80;;;;;;;22.72;37.79;96464.25;10339687;28;99773;-66
2022/05/12 10:28:02;;;;;;;3.17;1.70;;;;;;;22.65;37.24;96462.66;10335194;28;98717;-66
2022/05/12 10:33:18;;;;;;;2.20;1.63;;;;;;;22.73;37.51;96467.72;10334063;28;97168;-67
2022/05/12 10:38:34;;;;;;;3.53;1.75;;;;;;;22.89;37.14;96467.16;10339486;28;97002;-67
2022/05/12 10:43:57;;;;;;;3.05;1.50;;;;;;;23.25;36.28;96448.75;10337962;28;97016;-66
2022/05/12 10:49:11;;;;;;;3.42;1.95;;;;;;;23.59;35.04;96446.53;10322817;28;97100;-66
2022/05/12 10:54:26;;;;;;;2.55;1.48;;;;;;;23.87;35.21;96440.59;10334365;28;99623;-66
2022/05/12 10:59:46;;;;;;;4.13;1.85;;;;;;;24.06;34.20;96442.19;10337773;28;96944;-67
2022/05/12 11:04:53;;;;;;;2.83;1.80;;;;;;;24.27;34.11;96440.03;10339157;28;96790;-67
2022/05/12 11:10:05;;;;;;;3.92;1.83;;;;;;;24.35;34.14;96426.34;10334845;28;96803;-67
2022/05/12 11:15:12;;;;;;;4.00;1.73;;;;;;;24.47;34.13;96423.66;10333274;28;96971;-66
2022/05/12 11:20:25;;;;;;;3.45;1.45;;;;;;;24.56;33.79;96421.47;10338206;28;96819;-67
2022/05/12 11:25:37;;;;;;;5.35;1.70;;;;;;;24.61;33.30;96419.75;10337004;28;96993;-67
2022/05/12 11:30:46;;;;;;;3.17;1.50;;;;;;;24.59;33.26;96413.84;10322635;28;96913;-66
2022/05/12 11:35:51;;;;;;;3.40;1.52;;;;;;;24.64;32.58;96410.44;10340659;28;96923;-67
2022/05/12 11:40:55;;;;;;;2.67;1.60;;;;;;;;;;10342010;28;96832;-67
2022/05/12 11:46:18;;;;;;;4.38;1.70;;;;;;;25.08;32.42;96399.38;10340740;28;96896;-67
2022/05/12 11:51:32;;;;;;;2.17;1.60;;;;;;;25.20;32.23;96395.66;10341778;28;97264;-67
2022/05/12 11:56:46;;;;;;;3.75;1.70;;;;;;;25.18;32.20;96387.06;10344436;28;97390;-67
2022/05/12 12:01:54;;;;;;;1.83;1.30;;;;;;;25.17;32.92;96379.28;10343773;28;96768;-67
2022/05/12 12:06:57;;;;;;;2.75;1.40;;;;;;;25.12;33.01;96371.97;10340834;28;96735;-67
2022/05/12 12:12:02;;;;;;;3.28;1.73;;;;;;;25.25;32.25;96363.66;10346660;28;96912;-67
2022/05/12 12:17:07;;;;;;;3.13;1.50;;;;;;;25.44;32.69;96363.47;10344019;28;96935;-67
2022/05/12 12:22:20;;;;;;;2.20;1.52;;;;;;;25.67;31.53;96361.75;10340387;28;96893;-67
2022/05/12 12:27:50;;;;;;;2.37;1.73;;;;;;;25.88;31.20;96346.91;10343810;28;96867;-67
2022/05/12 12:33:14;;;;;;;4.10;1.70;;;;;;;25.95;31.27;96337.63;10345088;28;97023;-67
2022/05/12 12:39:01;;;;;;;3.72;1.77;;;;;;;26.22;30.67;96342.31;10342451;28;96829;-67
2022/05/12 12:44:17;;;;;;;4.88;1.77;;;;;;;26.45;30.61;96345.91;10342749;28;97122;-67
2022/05/12 12:49:24;;;;;;;3.47;1.67;;;;;;;26.65;30.94;96330.13;10340448;28;96904;-67
2022/05/12 13:00:15;;;;;;;2.78;1.70;;;;;;;26.97;31.16;96337.53;10337313;28;97756;-67
2022/05/12 13:05:21;;;;;;;2.97;1.77;;;;;;;27.26;30.59;96323.91;10341685;28;96775;-67
2022/05/12 13:10:25;;;;;;;2.65;1.80;;;;;;;27.41;30.63;96325.94;10339929;28;96889;-67
2022/05/12 13:15:32;;;;;;;3.53;1.73;;;;;;;27.65;29.87;96315.75;10342595;28;96936;-68
2022/05/12 13:20:41;;;;;;;2.42;1.63;;;;;;;27.77;30.11;96308.34;10340663;28;96770;-67
2022/05/12 13:25:44;;;;;;;3.30;1.70;;;;;;;27.97;29.36;96296.13;10341345;28;101690;-67
2022/05/12 13:30:51;;;;;;;3.22;1.67;;;;;;;28.35;29.57;96305.03;10338605;28;99909;-67
2022/05/12 13:35:56;;;;;;;4.13;1.65;;;;;;;28.86;29.44;96302.56;10343130;28;97437;-68
2022/05/12 13:41:01;;;;;;;3.40;1.67;;;;;;;28.94;29.27;96294.03;10340363;28;96748;-67
2022/05/12 13:46:23;;;;;;;4.10;1.73;;;;;;;28.88;29.87;96287.00;10336757;28;96920;-67
2022/05/12 13:51:47;;;;;;;3.65;2.00;;;;;;;28.85;30.09;96279.47;10338290;28;97365;-67
2022/05/12 13:57:22;;;;;;;4.18;1.67;;;;;;;28.83;30.30;96275.41;10335376;28;96924;-67
2022/05/12 14:02:32;;;;;;;3.60;2.25;;;;;;;28.76;30.29;96259.53;10339263;28;96918;-67
2022/05/12 14:07:35;;;;;;;4.32;1.90;;;;;;;28.85;30.23;96265.22;10341378;28;97111;-67
2022/05/12 14:19:13;;;;;;;;;;;;;;;28.85;30.28;96257.16;10321780;28;96752;-67
2022/05/12 14:23:35;;;;;;;3.80;1.57;;;;;;;29.03;30.58;96253.19;10181487;28;97324;-67
2022/05/12 14:28:39;;;;;;;;;;;;;;;29.05;30.80;96257.22;10189671;28;97105;-67
2022/05/12 14:33:43;;;;;;;2.70;1.70;;;;;;;29.05;30.89;96245.66;10176204;28;97094;-67
2022/05/12 14:38:47;;;;;;;4.22;1.83;;;;;;;29.11;30.68;96252.69;10181818;28;96995;-68
2022/05/12 14:43:50;;;;;;;5.40;2.00;;;;;;;29.14;31.03;96257.50;10180375;28;96899;-67
2022/05/12 14:48:55;;;;;;;7.15;2.10;;;;;;;28.98;31.80;96257.50;10176408;28;97212;-68
2022/05/12 14:53:58;;;;;;;5.35;1.92;;;;;;;28.95;31.99;96258.03;10179945;28;96969;-68
2022/05/12 14:59:01;;;;;;;3.85;1.83;;;;;;;28.84;32.13;96253.63;10334068;28;96856;-67
2022/05/12 15:04:05;;;;;;;4.88;2.25;;;;;;;29.12;32.31;96251.59;10334108;28;96990;-68
2022/05/12 15:09:09;;;;;;;3.38;1.80;;;;;;;29.70;32.00;96252.22;10333354;28;96949;-67
2022/05/12 15:14:12;;;;;;;4.93;1.95;;;;;;;30.07;31.65;96256.50;10340039;28;96757;-67
2022/05/12 15:19:16;;;;;;;4.22;1.83;;;;;;;30.48;31.05;96258.31;10341909;28;98127;-68
2022/05/12 15:24:20;;;;;;;6.18;2.00;;;;;;;31.25;30.03;96257.19;10347203;28;96751;-68
2022/05/12 15:29:22;;;;;;;6.47;1.80;;;;;;;31.23;28.86;96260.16;10345441;28;96990;-68
2022/05/12 15:34:27;;;;;;;4.85;1.75;;;;;;;30.74;28.78;96264.44;10334875;28;100139;-68
2022/05/12 15:39:30;;;;;;;3.20;1.83;;;;;;;30.62;28.98;96258.56;10354374;28;97794;-68
2022/05/12 15:44:34;;;;;;;5.70;2.20;;;;;;;30.12;29.28;96258.38;10339163;28;97154;-68
2022/05/12 15:49:43;;;;;;;4.70;1.65;;;;;;;29.40;29.43;96260.25;10343357;28;97952;-68
2022/05/12 15:54:46;;;;;;;3.72;2.22;;;;;;;29.09;30.39;96273.63;10340788;28;99854;-68
2022/05/12 15:59:49;;;;;;;5.82;2.17;;;;;;;28.77;31.80;96271.91;10345257;28;96918;-67
2022/05/12 16:04:54;;;;;;;;;;;;;;;28.59;32.05;96270.50;10343341;28;97344;-67
2022/05/12 16:09:58;;;;;;;5.70;2.30;;;;;;;28.28;33.23;96274.88;10340539;28;96945;-67
2022/05/12 16:15:11;;;;;;;6.55;2.10;;;;;;;28.12;33.74;96285.50;10342520;28;96853;-67
2022/05/12 16:20:17;;;;;;;4.13;2.05;;;;;;;27.94;34.12;96280.53;10328174;28;99382;-68
2022/05/12 16:25:21;;;;;;;5.97;2.05;;;;;;;27.74;34.85;96282.00;10319291;28;98972;-68
2022/05/12 16:30:26;;;;;;;3.25;1.70;;;;;;;27.33;33.68;96286.97;10311574;28;96968;-67
2022/05/12 16:35:30;;;;;;;4.57;2.40;;;;;;;26.80;33.52;96283.97;10322960;28;96940;-67
2022/05/12 16:40:34;;;;;;;2.53;1.60;;;;;;;26.50;33.32;96287.03;10314385;28;97969;-67
2022/05/12 16:45:38;;;;;;;5.78;1.90;;;;;;;26.35;33.46;96280.44;10324631;28;98084;-67
2022/05/12 16:50:46;;;;;;;4.53;1.88;;;;;;;26.16;33.31;96279.06;10306047;28;97857;-67
2022/05/12 16:55:49;;;;;;;5.57;1.80;;;;;;;26.09;33.34;96275.75;10315000;28;97094;-67
2022/05/12 17:00:52;;;;;;;5.70;3.10;;;;;;;25.98;33.66;96274.78;10323978;28;97100;-67
2022/05/12 17:06:03;;;;;;;7.10;2.22;;;;;;;25.64;33.91;96269.44;10318749;28;101398;-67
2022/05/12 17:11:07;;;;;;;6.15;2.40;;;;;;;25.49;34.05;96271.81;10314080;28;97261;-67
2022/05/12 17:16:10;;;;;;;4.72;2.03;;;;;;;25.66;34.17;96269.19;10318095;28;97024;-67
2022/05/12 17:21:15;;;;;;;5.38;2.10;;;;;;;26.31;33.58;96265.94;10321720;28;97158;-67
2022/05/12 17:26:18;;;;;;;3.63;2.13;;;;;;;26.94;32.86;96265.66;10307876;28;97163;-67
2022/05/12 17:31:21;;;;;;;2.80;1.67;;;;;;;26.90;32.54;96272.53;10320454;28;101289;-67
2022/05/12 17:36:27;;;;;;;5.23;2.27;;;;;;;26.56;32.47;96264.63;10333213;28;96875;-66
2022/05/12 17:41:31;;;;;;;5.15;1.98;;;;;;;26.31;32.91;96292.72;10308241;28;96851;-67
2022/05/12 17:46:35;;;;;;;4.13;2.40;;;;;;;26.11;33.07;96297.72;10312436;28;96985;-67
2022/05/12 17:51:39;;;;;;;4.53;2.00;;;;;;;25.98;33.46;96296.19;10322738;28;96991;-66
2022/05/12 17:56:43;;;;;;;5.38;3.00;;;;;;;25.81;33.87;96304.22;10336247;28;96817;-67
2022/05/12 18:01:46;;;;;;;4.97;2.25;;;;;;;25.56;34.35;96309.94;10340208;28;96941;-67
2022/05/12 18:06:51;;;;;;;4.97;2.80;;;;;;;25.19;35.27;96323.72;10334035;28;98915;-66
2022/05/12 18:12:00;;;;;;;4.05;2.20;;;;;;;24.74;36.25;96311.84;10329112;28;96779;-66
2022/05/12 18:17:03;;;;;;;3.70;2.10;;;;;;;24.28;36.79;96319.69;10331083;28;96893;-66
2022/05/12 18:22:11;;;;;;;4.90;2.10;;;;;;;24.11;37.08;96319.56;10330799;28;97179;-67
2022/05/12 18:27:15;;;;;;;4.38;2.10;;;;;;;23.82;37.77;96331.91;10333478;28;96804;-66
2022/05/12 18:32:20;;;;;;;6.05;2.10;;;;;;;23.53;37.78;96344.22;10326714;28;97193;-67
2022/05/12 18:37:25;;;;;;;4.47;2.47;;;;;;;23.26;37.98;96344.56;10312876;28;96917;-66
2022/05/12 18:42:28;;;;;;;6.13;2.40;;;;;;;23.16;38.18;96366.41;10329099;28;96866;-66
2022/05/12 18:47:31;;;;;;;6.05;2.30;;;;;;;23.04;38.16;96370.06;10321283;28;96949;-66
2022/05/12 18:52:35;;;;;;;8.63;2.80;;;;;;;22.79;38.51;96377.09;10319161;28;98849;-66
2022/05/12 18:57:39;;;;;;;4.78;2.22;;;;;;;22.83;38.32;96366.03;10313898;28;96896;-66
2022/05/12 19:02:42;;;;;;;4.40;2.27;;;;;;;22.73;37.76;96369.19;10311322;28;97030;-66
2022/05/12 19:07:46;;;;;;;5.35;2.20;;;;;;;22.56;38.10;96377.75;10327154;28;96944;-66
2022/05/12 19:12:50;;;;;;;6.57;2.40;;;;;;;22.43;38.10;96393.81;10319875;28;97923;-66
2022/05/12 19:17:55;;;;;;;4.72;2.20;;;;;;;22.44;37.75;96395.47;10312346;28;97332;-66
2022/05/12 19:23:00;;;;;;;4.53;2.40;;;;;;;22.50;37.53;96399.94;10303975;28;96753;-66
2022/05/12 19:28:04;;;;;;;4.57;2.20;;;;;;;22.59;37.25;96398.59;10328295;28;97717;-66
2022/05/12 19:33:07;;;;;;;6.55;2.40;;;;;;;22.61;37.39;96412.53;10326467;28;97406;-66
2022/05/12 19:38:12;;;;;;;5.35;2.60;;;;;;;22.55;37.78;96408.06;10318806;28;96927;-66
2022/05/12 19:43:16;;;;;;;5.05;2.45;;;;;;;22.44;38.25;96428.22;10323680;28;97809;-66
2022/05/12 19:48:21;;;;;;;4.18;2.38;;;;;;;22.35;38.66;96440.16;10326945;28;96893;-66
2022/05/12 19:53:27;;;;;;;5.53;2.55;;;;;;;22.21;39.31;96450.09;10321183;28;96999;-66
2022/05/12 19:58:30;;;;;;;6.80;3.13;;;;;;;22.03;40.65;96458.00;10321797;28;96923;-66
2022/05/12 20:03:33;;;;;;;6.07;2.90;;;;;;;21.69;43.08;96462.69;10333278;28;100282;-66
2022/05/12 20:08:37;;;;;;;6.35;3.17;;;;;;;21.41;45.21;96441.72;10323995;28;97841;-66
2022/05/12 20:13:40;;;;;;;;;;;;;;;21.36;44.28;96445.00;10324625;28;98369;-66
2022/05/12 20:18:45;;;;;;;5.57;2.95;;;;;;;21.28;46.01;96439.94;10334513;28;96913;-66
2022/05/12 20:23:49;;;;;;;6.13;3.20;;;;;;;21.17;47.85;96448.56;10310401;28;96944;-66
2022/05/12 20:28:53;;;;;;;6.22;2.85;;;;;;;21.10;48.42;96465.34;10323528;28;96733;-66
2022/05/12 20:33:57;;;;;;;6.87;2.87;;;;;;;20.87;48.88;96491.53;10328717;28;98049;-66
2022/05/12 20:39:01;;;;;;;5.07;2.90;;;;;;;20.52;49.54;96505.00;10327545;28;96816;-66
2022/05/12 20:44:05;;;;;;;;;;;;;;;20.47;48.87;96502.16;10331360;28;96922;-66
2022/05/12 20:49:09;;;;;;;6.10;2.85;;;;;;;20.52;49.09;96505.00;10331485;28;97105;-66
2022/05/12 20:54:13;;;;;;;;;;;;;;;20.46;47.83;96505.81;10334280;28;96849;-66
2022/05/12 20:59:17;;;;;;;4.57;2.85;;;;;;;20.09;51.06;96500.88;10332037;28;97052;-66
2022/05/12 21:04:20;;;;;;;7.40;2.80;;;;;;;19.66;52.51;96501.13;10329916;28;97556;-66
2022/05/12 21:09:24;;;;;;;6.35;3.15;;;;;;;19.61;52.61;96504.38;10321106;28;97169;-66
2022/05/12 21:14:27;;;;;;;6.47;2.80;;;;;;;19.40;53.12;96507.97;10314738;28;96907;-65
2022/05/12 21:19:30;;;;;;;5.05;3.03;;;;;;;19.16;54.47;96506.63;10319352;28;99265;-66
2022/05/12 21:24:34;;;;;;;5.55;3.15;;;;;;;18.98;55.33;96508.94;10321304;28;98151;-66
2022/05/12 21:29:37;;;;;;;4.30;3.00;;;;;;;18.86;55.48;96506.84;10330726;28;97563;-66
2022/05/12 21:34:40;;;;;;;5.93;2.80;;;;;;;19.03;55.50;96509.19;10325792;28;96811;-66
2022/05/12 21:39:45;;;;;;;3.63;2.75;;;;;;;19.09;55.25;96513.72;10306640;28;96876;-65
2022/05/12 21:45:40;;;;;;;3.90;3.20;;;;;;;18.98;56.00;96514.25;10329665;28;97262;-66
2022/05/12 21:50:12;;;;;;;5.85;3.00;;;;;;;18.64;56.54;96511.34;10325459;28;100070;-65
2022/05/12 21:55:17;;;;;;;5.72;2.63;;;;;;;18.62;57.14;96520.47;10326815;28;96998;-66
2022/05/12 22:05:57;;;;;;;4.75;2.90;;;;;;;18.67;56.86;96528.66;10327923;28;98552;-65
2022/05/12 22:11:02;;;;;;;2.92;2.55;;;;;;;18.80;56.65;96523.47;10328318;28;96946;-65
2022/05/12 22:16:06;;;;;;;5.03;3.00;;;;;;;18.98;57.03;96530.13;10326589;28;97626;-65
2022/05/12 22:21:09;;;;;;;5.17;2.83;;;;;;;18.73;57.87;96513.84;10326341;28;98004;-66
2022/05/12 22:26:15;;;;;;;5.68;3.00;;;;;;;18.70;57.92;96513.19;10324812;28;96910;-65
2022/05/12 22:31:18;;;;;;;5.53;3.40;;;;;;;18.63;58.15;96516.81;10326338;28;96776;-66
2022/05/12 22:36:21;;;;;;;5.15;3.00;;;;;;;18.61;57.87;96518.84;10325964;28;97122;-66
2022/05/12 22:41:25;;;;;;;3.63;2.63;;;;;;;18.58;59.08;96514.72;10320815;28;97121;-66
2022/05/12 22:46:28;;;;;;;4.35;3.00;;;;;;;18.21;60.34;96507.91;10324793;28;96978;-66
2022/05/12 22:51:31;;;;;;;6.65;3.60;;;;;;;17.93;61.72;96511.31;10323957;28;96779;-66
2022/05/12 22:56:36;;;;;;;6.07;3.35;;;;;;;17.69;61.96;96515.88;10304914;28;96993;-66
2022/05/12 23:01:39;;;;;;;4.07;2.45;;;;;;;17.73;61.23;96511.03;10310267;28;96903;-65
2022/05/12 23:06:42;;;;;;;3.97;3.10;;;;;;;17.72;61.34;96512.88;10323242;28;97685;-66
2022/05/12 23:11:46;;;;;;;4.75;2.78;;;;;;;17.56;61.26;96511.25;10297790;28;96770;-66
2022/05/12 23:16:49;;;;;;;5.90;3.10;;;;;;;17.63;60.85;96506.06;10307079;28;97693;-66
2022/05/12 23:21:55;;;;;;;6.10;2.92;;;;;;;17.65;61.53;96504.06;10321992;28;100254;-66
2022/05/12 23:27:00;;;;;;;4.35;3.03;;;;;;;17.72;61.50;96499.66;10315425;28;96785;-66
2022/05/12 23:32:03;;;;;;;4.47;3.35;;;;;;;17.79;61.74;96498.91;10320083;28;99368;-66
2022/05/12 23:37:06;;;;;;;4.15;3.45;;;;;;;17.50;62.93;96500.63;10326489;28;97135;-66
2022/05/12 23:42:10;;;;;;;5.10;3.22;;;;;;;17.13;64.21;96499.75;10338821;28;96944;-66
2022/05/12 23:47:15;;;;;;;4.63;2.90;;;;;;;16.76;65.12;96510.19;10324556;28;98097;-66
2022/05/12 23:52:19;;;;;;;;;;;;;;;16.75;64.24;96513.00;10338586;28;97909;-66
2022/05/12 23:57:23;;;;;;;5.75;3.42;;;;;;;16.65;64.59;96517.69;10335996;28;97127;-66
